Flight Track Log - Related Links

Times and Time Zones

All times are in EDT time to prevent confusion due to time zone crossing. See the OPT330 flight status page for this flight to view local times or setup timezone preferences in your user account.

Time Position Orientation Groundspeed Altitude Reporting Facility
EDT Latitude Longitude Course Direction KTS MPH feet Rate Location/Type
Sat 07:27:34 PM 38.5016 -121.2976 86° East 296 341 12,900  Level FlightAware (KSLC)
Sat 07:33:03 PM 38.4505 -120.3778 86° East 411 473 27,500 2,542 Climbing FlightAware
Sat 07:34:27 PM 38.4637 -120.1514 86° East 440 506 30,400 2,256 Climbing FlightAware
Sat 07:35:00 PM 38.4684 -120.0663 86° East 431 496 31,900 2,522 Climbing FlightAware
Sat 07:35:36 PM 38.4725 -119.9918 86° East 429 494 33,300 2,273 Climbing FlightAware
Sat 07:36:06 PM 38.4757 -119.9342 86° East 426 490 34,400 2,351 Climbing FlightAware
Sat 07:37:13 PM 38.4861 -119.7387 86° East 402 463 37,100 2,111 Climbing FlightAware
Sat 07:37:54 PM 38.4916 -119.6398 86° East 406 467 38,200 1,521 Climbing FlightAware
Sat 07:38:24 PM 38.4954 -119.5697 86° East 405 466 38,900 1,371 Climbing FlightAware
Sat 07:39:04 PM 38.5004 -119.4736 86° East 408 470 39,800 1,231 Climbing FlightAware
Sat 07:39:42 PM 38.5050 -119.3824 87° East 406 467 40,500 1,059 Climbing FlightAware
Sat 07:40:12 PM 38.5086 -119.3105 87° East 407 468 41,000 971 Climbing FlightAware
Sat 07:40:50 PM 38.5131 -119.2197 87° East 409 471 41,600 971 Climbing FlightAware
Sat 07:41:20 PM 38.5167 -119.1467 87° East 409 471 42,100 1,083 Climbing FlightAware
Sat 07:42:02 PM 38.5214 -119.0465 87° East 406 467 42,900 1,083 Climbing FlightAware
Sat 07:42:32 PM 38.5248 -118.9753 87° East 404 465 43,400 1,000 Climbing FlightAware
Sat 07:43:14 PM 38.5295 -118.8760 87° East 398 458 44,100 1,083 Climbing FlightAware
Sat 07:43:44 PM 38.5326 -118.8061 87° East 392 451 44,700 142 Climbing FlightAware
Sat 07:49:33 PM 38.5602 -117.9609 95° East 424 488 45,000 47 Climbing FlightAware
Sat 07:50:08 PM 38.5538 -117.8726 95° East 425 489 45,000  Level FlightAware
Sat 07:50:43 PM 38.5476 -117.7848 95° East 425 489 45,000  Level FlightAware
Sat 07:51:22 PM 38.5406 -117.6891 94° East 425 489 45,000  Level FlightAware
Sat 07:51:55 PM 38.5345 -117.6060 94° East 424 488 45,000  Level FlightAware
Sat 07:52:34 PM 38.5273 -117.5094 94° East 425 489 45,000  Level FlightAware
Sat 07:53:10 PM 38.5204 -117.4193 95° East 425 489 45,000  Level FlightAware
Sat 07:53:43 PM 38.5140 -117.3355 95° East 423 487 45,000  Level FlightAware
Sat 07:54:22 PM 38.5065 -117.2393 95° East 423 487 45,000  Level FlightAware
Sat 07:54:58 PM 38.4996 -117.1498 95° East 423 487 45,000  Level FlightAware
Sat 07:55:35 PM 38.4924 -117.0586 95° East 423 487 45,000  Level FlightAware
Sat 07:56:10 PM 38.4855 -116.9716 95° East 424 488 45,000  Level FlightAware
Sat 07:56:47 PM 38.4780 -116.8786 95° East 423 487 45,000  Level FlightAware
Sat 07:57:59 PM 38.4634 -116.7004 95° East 421 484 45,000  Level FlightAware
Sat 07:58:35 PM 38.4560 -116.6108 95° East 419 482 45,000  Level FlightAware
Sat 07:59:12 PM 38.4485 -116.5215 95° East 418 481 45,000  Level FlightAware
Sat 07:59:48 PM 38.4410 -116.4320 95° East 418 481 45,000  Level FlightAware
Sat 08:00:25 PM 38.4334 -116.3423 95° East 416 479 45,000  Level FlightAware
Sat 08:00:58 PM 38.4266 -116.2632 95° East 415 478 45,000  Level FlightAware
Sat 08:01:36 PM 38.4200 -116.1967 95° East 417 480 45,000  Level Salt Center
Sat 08:02:37 PM 38.4075 -116.0511 96° East 416 479 45,000  Level Salt Center
Sat 08:03:38 PM 38.3944 -115.9061 97° East 412 474 45,000  Level Salt Center
Sat 08:04:40 PM 38.3819 -115.7614 96° East 412 474 45,000  Level Salt Center
Sat 08:05:41 PM 38.3658 -115.5886 97° East 411 473 45,000  Level Salt Center
Sat 08:11:40 PM 38.2859 -114.7477 97° East 407 468 45,000  Level FlightAware
Sat 08:12:46 PM 38.2678 -114.5672 97° East 406 467 45,000  Level FlightAware
Sat 08:13:17 PM 38.2698 -114.5873 97° East 407 468 45,000  Level FlightAware
Sat 08:13:50 PM 38.2524 -114.4155 97° East 407 468 45,000  Level FlightAware
Sat 08:14:26 PM 38.2559 -114.3284 83° East 401 461 45,000  Level FlightAware
Sat 08:15:06 PM 38.2641 -114.2344 84° East 402 463 45,000  Level FlightAware
Sat 08:15:36 PM 38.2699 -114.1634 84° East 405 466 45,000  Level FlightAware
Sat 08:15:54 PM 38.2735 -114.1197 85° East 402 463 45,000  Level FlightAware
Sat 08:16:26 PM 38.2796 -114.0461 84° East 404 465 45,000  Level FlightAware
Sat 08:16:56 PM 38.2854 -113.9741 84° East 403 464 45,000  Level FlightAware
Sat 08:17:28 PM 38.2916 -113.8997 84° East 404 465 45,000  Level FlightAware
Sat 08:17:59 PM 38.2975 -113.8261 84° East 404 465 45,000  Level FlightAware
Sat 08:18:42 PM 38.3058 -113.7239 84° East 405 466 45,000  Level FlightAware
Sat 08:19:12 PM 38.3114 -113.6528 84° East 406 467 45,000  Level FlightAware
Sat 08:19:56 PM 38.3196 -113.5487 84° East 407 468 45,000  Level FlightAware
Sat 08:20:26 PM 38.3252 -113.4770 84° East 408 470 45,000  Level FlightAware
Sat 08:21:09 PM 38.3332 -113.3746 85° East 409 471 45,000  Level FlightAware
Sat 08:21:39 PM 38.3387 -113.3021 85° East 408 470 45,000  Level FlightAware
Sat 08:22:21 PM 38.3462 -113.2020 85° East 407 468 45,000  Level FlightAware
Sat 08:22:52 PM 38.3517 -113.1291 85° East 407 468 45,000  Level FlightAware
Sat 08:23:33 PM 38.3590 -113.0320 85° East 406 467 45,000  Level FlightAware (KBTF)
Sat 08:24:05 PM 38.3707 -112.9574 76° East 403 464 45,000  Level FlightAware
Sat 08:24:48 PM 38.3891 -112.8584 77° East 403 464 45,000  Level FlightAware
Sat 08:25:18 PM 38.4015 -112.7905 77° East 403 464 45,000  Level FlightAware
Sat 08:25:53 PM 38.4168 -112.7065 78° East 402 463 45,000  Level FlightAware (KBTF)
Sat 08:26:10 PM 38.4229 -112.6734 77° East 403 464 45,000  Level FlightAware
Sat 08:28:50 PM 38.4907 -112.2977 77° East 405 466 45,000  Level FlightAware
Sat 08:29:48 PM 38.5151 -112.1606 77° East 407 468 45,000  Level FlightAware
Sat 08:30:30 PM 38.5295 -112.0790 77° East 407 468 45,000  Level FlightAware
Sat 08:31:03 PM 38.5453 -111.9893 77° East 408 470 45,000  Level FlightAware
Sat 08:31:33 PM 38.5576 -111.9192 78° East 408 470 45,000  Level FlightAware
Sat 08:32:50 PM 38.5898 -111.7347 78° East 410 472 45,000  Level FlightAware
Sat 08:33:59 PM 38.6179 -111.5719 78° East 409 471 45,000  Level FlightAware
Sat 08:35:10 PM 38.6467 -111.4033 78° East 409 471 45,000  Level FlightAware
Sat 08:36:25 PM 38.6766 -111.2264 78° East 409 471 45,000  Level FlightAware (KGUC)
Sat 08:37:12 PM 38.6938 -111.1241 78° East 413 475 45,000  Level FlightAware
Sat 08:37:56 PM 38.7133 -111.0080 78° East 412 474 45,000  Level FlightAware (KGUC)
Sat 08:38:26 PM 38.7250 -110.9373 78° East 412 474 45,000  Level FlightAware
Sat 08:38:56 PM 38.7368 -110.8660 78° East 412 474 45,000  Level FlightAware
Sat 08:39:28 PM 38.7494 -110.7897 78° East 413 475 45,000  Level FlightAware
Sat 08:40:01 PM 38.7622 -110.7117 78° East 413 475 45,000  Level FlightAware
Sat 08:40:35 PM 38.7755 -110.6309 78° East 413 475 45,000  Level FlightAware
Sat 08:41:14 PM 38.7910 -110.5355 78° East 414 476 45,000  Level FlightAware (KGUC)
Sat 08:41:46 PM 38.8033 -110.4598 78° East 413 475 45,000  Level FlightAware
Sat 08:42:20 PM 38.8156 -110.3802 81° East 414 476 45,000  Level FlightAware
Sat 08:42:51 PM 38.8231 -110.3029 83° East 415 478 45,000  Level FlightAware
Sat 08:43:32 PM 38.8330 -110.2031 83° East 415 478 45,000  Level FlightAware
Sat 08:44:02 PM 38.8406 -110.1298 83° East 415 478 45,000  Level FlightAware
Sat 08:44:36 PM 38.8491 -110.0468 83° East 415 478 45,000  Level FlightAware
Sat 08:45:06 PM 38.8564 -109.9763 83° East 416 479 45,000  Level FlightAware
Sat 08:45:36 PM 38.8641 -109.9001 83° East 415 478 45,000  Level FlightAware (KGUC)
Sat 08:46:10 PM 38.8725 -109.8178 83° East 415 478 45,000  Level FlightAware
Sat 08:46:41 PM 38.8801 -109.7424 83° East 415 478 45,000  Level FlightAware
Sat 08:47:11 PM 38.8870 -109.6722 83° East 415 478 45,000  Level FlightAware
Sat 08:47:46 PM 38.8960 -109.5819 83° East 415 478 45,000  Level FlightAware (KGUC)
Sat 08:48:17 PM 38.9032 -109.5078 83° East 416 479 45,000  Level FlightAware (KGUC)
Sat 08:48:52 PM 38.9116 -109.4225 83° East 415 478 45,000  Level FlightAware
Sat 08:49:22 PM 38.9187 -109.3491 83° East 416 479 45,000  Level FlightAware
Sat 08:49:57 PM 38.9269 -109.2629 83° East 416 479 45,000  Level FlightAware
Sat 08:50:27 PM 38.9336 -109.1923 83° East 417 480 45,000  Level FlightAware
Sat 08:50:57 PM 38.9409 -109.1158 83° East 416 479 45,000  Level FlightAware (KGUC)
Sat 08:51:27 PM 38.9478 -109.0428 83° East 416 479 45,000  Level FlightAware (KGUC)
Sat 08:51:57 PM 38.9547 -108.9695 83° East 416 479 45,000  Level FlightAware (KGUC)
Sat 08:52:27 PM 38.9613 -108.8983 83° East 415 478 45,000  Level FlightAware (KGUC)
Sat 08:52:57 PM 38.9683 -108.8224 83° East 415 478 45,000  Level FlightAware (KGUC)
Sat 08:53:27 PM 38.9750 -108.7495 83° East 414 476 45,000  Level FlightAware (KGUC)
Sat 08:53:57 PM 38.9817 -108.6757 84° East 413 475 45,000  Level FlightAware (KGUC)
Sat 08:54:35 PM 38.9901 -108.5833 84° East 413 475 45,000  Level FlightAware
Sat 08:55:07 PM 38.9970 -108.5061 84° East 411 473 45,000  Level FlightAware (KGUC)
Sat 08:55:39 PM 39.0039 -108.4279 84° East 411 473 45,000  Level FlightAware
Sat 08:56:17 PM 39.0119 -108.3367 84° East 410 472 45,000  Level FlightAware (KGUC)
Sat 08:56:55 PM 39.0199 -108.2455 84° East 408 470 45,000  Level FlightAware
Sat 08:57:26 PM 39.0264 -108.1708 84° East 409 471 45,000  Level FlightAware
Sat 08:57:56 PM 39.0327 -108.0975 84° East 408 470 45,000  Level FlightAware
Sat 08:58:26 PM 39.0389 -108.0250 84° East 409 471 45,000  Level FlightAware (KGUC)
Sat 08:58:57 PM 39.0451 -107.9508 84° East 409 471 45,000  Level FlightAware (KGUC)
Sat 08:59:27 PM 39.0511 -107.8789 84° East 408 470 45,000  Level FlightAware (KGUC)
Sat 09:00:04 PM 39.0586 -107.7896 84° East 407 468 45,000  Level FlightAware
Sat 09:00:35 PM 39.0647 -107.7159 84° East 406 467 45,000  Level FlightAware
Sat 09:01:05 PM 39.0706 -107.6433 84° East 407 468 45,000  Level FlightAware
Sat 09:01:35 PM 39.0765 -107.5710 84° East 408 470 45,000  Level FlightAware
Sat 09:02:06 PM 39.0825 -107.4967 84° East 408 470 45,000  Level FlightAware
Sat 09:02:37 PM 39.0885 -107.4214 84° East 408 470 45,000  Level FlightAware
Sat 09:03:07 PM 39.0942 -107.3492 84° East 408 470 45,000  Level FlightAware (KGUC)
Sat 09:03:37 PM 39.0999 -107.2769 84° East 408 470 45,000  Level FlightAware (KGUC)
Sat 09:04:10 PM 39.1062 -107.1966 84° East 408 470 45,000  Level FlightAware
Sat 09:04:40 PM 39.1117 -107.1261 84° East 408 470 45,000 -500 Level FlightAware (KEIK)
Sat 09:05:10 PM 39.1173 -107.0518 85° East 419 482 44,500 -1,754 Descending FlightAware (KEIK)
Sat 09:05:45 PM 39.1241 -106.9627 84° East 431 496 43,100 -2,029 Descending FlightAware (KEIK)
Sat 09:06:18 PM 39.1304 -106.8793 85° East 429 494 42,200 -1,781 Descending FlightAware (KGUC)
Sat 09:06:49 PM 39.1360 -106.8035 85° East 431 496 41,200 -2,226 Descending FlightAware
Sat 09:07:20 PM 39.1422 -106.7204 85° East 439 505 39,900 -2,531 Descending FlightAware
Sat 09:07:53 PM 39.1484 -106.6346 85° East 438 504 38,500 -2,476 Descending FlightAware
Sat 09:08:23 PM 39.1542 -106.5562 85° East 436 502 37,300 -2,400 Descending FlightAware
Sat 09:08:53 PM 39.1596 -106.4797 85° East 428 493 36,100 -2,459 Descending FlightAware
Sat 09:09:24 PM 39.1651 -106.4033 85° East 420 483 34,800 -2,400 Descending FlightAware
Sat 09:10:03 PM 39.1719 -106.3073 85° East 411 473 33,300 -2,163 Descending FlightAware
Sat 09:10:50 PM 39.1809 -106.2480 73° East 414 476 31,700 -1,923 Descending FlightAware (KGUC)
Sat 09:11:21 PM 39.2149 -106.1288 70° East 383 441 30,800 -1,672 Descending FlightAware
Sat 09:11:51 PM 39.2323 -106.0662 70° East 369 425 30,000 -1,700 Descending FlightAware (KEIK)
Sat 09:12:21 PM 39.2497 -106.0044 70° East 360 414 29,100 -1,742 Descending FlightAware (KEIK)
Sat 09:12:53 PM 39.2678 -105.9398 70° East 357 411 28,200 -1,692 Descending FlightAware
Sat 09:13:39 PM 39.2924 -105.8513 70° East 362 417 26,900 -1,671 Descending FlightAware
Sat 09:14:12 PM 39.3122 -105.7807 70° East 361 415 26,000 -1,662 Descending FlightAware
Sat 09:14:44 PM 39.3294 -105.7195 70° East 356 410 25,100 -1,548 Descending FlightAware (KEIK)
Sat 09:15:45 PM 39.3622 -105.6009 70° East 352 405 23,600 -1,326 Descending FlightAware (KEIK)
Sat 09:16:19 PM 39.3826 -105.5273 70° East 349 402 23,000 -474 Descending FlightAware (KEIK)
Sat 09:17:01 PM 39.4125 -105.4525 51° Northeast 351 404 23,000 -333 Level FlightAware (KEIK)
Sat 09:17:31 PM 39.4442 -105.3995 50° Northeast 369 425 22,600 -1,043 Descending FlightAware (KEIK)
Sat 09:17:47 PM 39.4626 -105.3784 36° Northeast 373 429 22,200 -1,235 Descending FlightAware
Sat 09:18:05 PM 39.4889 -105.3621 19° North 370 426 21,900 -1,250 Descending FlightAware (KEIK)
Sat 09:18:35 PM 39.5401 -105.3387 20° North 365 420 21,200 -1,352 Descending FlightAware (KEIK)
Sat 09:19:16 PM 39.6060 -105.3090 19° North 365 420 20,300 -1,250 Descending FlightAware
Sat 09:19:47 PM 39.6554 -105.2870 19° North 362 417 19,700 -1,161 Descending FlightAware (KEIK)
Sat 09:20:18 PM 39.7045 -105.2654 19° North 357 411 19,100 -762 Descending FlightAware
Sat 09:20:50 PM 39.7531 -105.2439 19° North 342 394 18,900 -938 Descending FlightAware (KEIK)
Sat 09:21:22 PM 39.8009 -105.2228 19° North 341 392 18,100 -1,433 Descending FlightAware (KEIK)
Sat 09:21:57 PM 39.8509 -105.2005 19° North 331 381 17,300 -1,612 Descending FlightAware
Sat 09:22:29 PM 39.8939 -105.1814 19° North 321 369 16,300 -2,000 Descending FlightAware
Sat 09:23:00 PM 39.9344 -105.1634 19° North 312 359 15,200 -2,091 Descending FlightAware
Sat 09:23:35 PM 39.9876 -105.1398 19° North 294 338 14,000 -2,087 Descending FlightAware (KEIK)
Sat 09:24:09 PM 40.0281 -105.1217 19° North 282 325 12,800 -2,118 Descending FlightAware (KEIK)
Sat 09:24:43 PM 40.0722 -105.1020 19° North 284 327 11,600 -2,372 Descending FlightAware (KEIK)
Sat 09:25:35 PM 40.1321 -105.0751 19° North 285 328 9,400 -2,435 Descending FlightAware (KEIK)
Sat 09:25:52 PM 40.1586 -105.0633 19° North 282 325 8,800 -1,286 Descending FlightAware (KEIK)
Sat 09:26:31 PM 40.2037 -105.0430 19° North 254 292 8,200 -915 Descending FlightAware (KEIK)
Sat 09:26:51 PM 40.2230 -105.0344 19° North 240 276 7,900 -923 Descending FlightAware (KEIK)
Sat 09:27:10 PM 40.2440 -105.0250 19° North 222 255 7,600 -281 Descending FlightAware (KEIK)
Sat 09:27:55 PM 40.2829 -105.0074 19° North 172 198 7,600  Level FlightAware (KEIK)
Sat 09:28:16 PM 40.2975 -105.0004 20° North 152 175 7,600  Level FlightAware (KEIK)
Sat 09:28:34 PM 40.3065 -104.9964 18° North 121 139 7,600  Level FlightAware (KEIK)
Sat 09:29:05 PM 40.3239 -104.9891 18° North 115 132 7,600  Level FlightAware (KEIK)
Sat 09:29:24 PM 40.3325 -104.9852 19° North 112 129 7,600 -293 Level FlightAware (KEIK)
Sat 09:29:46 PM 40.3434 -104.9803 18° North 114 131 7,400 -818 Descending FlightAware (KEIK)
Sat 09:30:30 PM 40.3651 -104.9723 348° North 96 110 6,700 -750 Descending FlightAware (KEIK)
Sat 09:30:50 PM 40.3748 -104.9769 339° North 104 120 6,600 -250 Descending FlightAware (KEIK)
Sat 09:31:18 PM 40.3868 -104.9824 342° North 103 119 6,500 -211 Descending FlightAware (KEIK)
Sat 09:31:47 PM 40.3998 -104.9885 338° Northwest 106 122 6,400 -240 Descending FlightAware (KEIK)
Sat 09:32:08 PM 40.4103 -104.9933 342° North 102 117 6,300 -439 Descending FlightAware (KEIK)
Sat 09:32:28 PM 40.4189 -104.9973 342° North 99 114 6,100 -600 Descending FlightAware (KEIK)
Sat 09:32:48 PM 40.4277 -105.0014 340° North 97 112 5,900 -632 Descending FlightAware (KEIK)
Sat 09:33:06 PM 40.4355 -105.0050 340° North 98 113 5,700 -667 Descending FlightAware (KEIK)

Login

Don't have an account? Register now (free) for customized features, flight alerts, and more!